createdAt,value
2022-12-05T00:01:54.855Z,102161.91
2022-12-05T00:04:23.182Z,102165.28
2022-12-05T00:06:52.827Z,102162.72
2022-12-05T00:09:21.035Z,102168.81
2022-12-05T00:11:49.113Z,102172.19
2022-12-05T00:14:17.205Z,102160.03
2022-12-05T00:16:45.897Z,102159.19
2022-12-05T00:19:16.409Z,102164.44
2022-12-05T00:21:45.313Z,102160.03
2022-12-05T00:24:16.761Z,102160.94
2022-12-05T00:26:44.806Z,102160.94
2022-12-05T00:29:13.686Z,102164.31
2022-12-05T00:31:42.133Z,102166.47
2022-12-05T00:34:10.375Z,102158.59
2022-12-05T00:36:38.967Z,102165.63
2022-12-05T00:39:09.303Z,102166.25
2022-12-05T00:41:39.198Z,102172.06
2022-12-05T00:44:07.493Z,102166.59
2022-12-05T00:46:36.738Z,102170.25
2022-12-05T00:49:06.919Z,102167.75
2022-12-05T00:51:36.898Z,102169.56
2022-12-05T00:54:08.906Z,102166.72
2022-12-05T00:56:38.727Z,102188.06
2022-12-05T00:59:07.860Z,102192.56
2022-12-05T01:01:38.142Z,102190.91
2022-12-05T01:04:08.427Z,102195.41
2022-12-05T01:06:36.646Z,102208.19
2022-12-05T01:09:06.686Z,102218.81
2022-12-05T01:11:40.799Z,102207.47
2022-12-05T01:14:11.529Z,102219.03
2022-12-05T01:16:41.053Z,102223.56
2022-12-05T01:19:13.163Z,102224.66
2022-12-05T01:21:41.303Z,102230.34
2022-12-05T01:24:10.049Z,102237.59
2022-12-05T01:26:38.630Z,102235.91
2022-12-05T01:29:07.178Z,102235.31
2022-12-05T01:31:38.619Z,102246.75
2022-12-05T01:34:07.420Z,102239.34
2022-12-05T01:36:36.027Z,102235.16
2022-12-05T01:39:04.900Z,102242.19
2022-12-05T01:41:35.791Z,102250.78
2022-12-05T01:44:06.248Z,102246.50
2022-12-05T01:46:38.165Z,102248.16
2022-12-05T01:49:10.932Z,102243.13
2022-12-05T01:51:41.497Z,102245.75
2022-12-05T01:54:11.641Z,102242.19
2022-12-05T01:56:43.294Z,102243.97
2022-12-05T01:59:12.921Z,102243.00
2022-12-05T02:01:42.756Z,102254.25
2022-12-05T02:04:11.976Z,102250.78
2022-12-05T02:06:40.227Z,102250.56
2022-12-05T02:09:08.536Z,102255.72
2022-12-05T02:11:43.085Z,102264.91
2022-12-05T02:14:21.972Z,102266.25
2022-12-05T02:16:59.827Z,102271.63
2022-12-05T02:20:08.490Z,102276.63
2022-12-05T02:23:04.995Z,102275.44
2022-12-05T02:26:11.403Z,102281.19
2022-12-05T02:29:04.381Z,102286.44
2022-12-05T02:31:38.389Z,102296.72
2022-12-05T02:34:11.852Z,102295.06
2022-12-05T02:36:45.924Z,102300.31
2022-12-05T02:39:18.967Z,102307.06
2022-12-05T02:41:52.151Z,102302.88
2022-12-05T02:44:29.492Z,102300.25
2022-12-05T02:47:01.436Z,102298.69
2022-12-05T02:49:34.931Z,102296.19
2022-12-05T02:52:06.002Z,102299.75
2022-12-05T02:54:39.336Z,102307.59
2022-12-05T02:57:08.695Z,102305.22
2022-12-05T02:59:37.753Z,102302.69
2022-12-05T03:02:09.239Z,102301.16
2022-12-05T03:04:37.534Z,102296.09
2022-12-05T03:07:10.178Z,102291.38
2022-12-05T03:09:41.574Z,102295.66
2022-12-05T03:12:14.356Z,102292.00
2022-12-05T03:14:47.589Z,102303.78
2022-12-05T03:17:23.552Z,102296.53
2022-12-05T03:19:58.615Z,102300.19
2022-12-05T03:22:33.976Z,102302.59
2022-12-05T03:25:03.603Z,102307.03
2022-12-05T03:27:41.243Z,102303.28
2022-12-05T03:30:11.776Z,102319.00
2022-12-05T03:32:46.823Z,102307.88
2022-12-05T03:35:22.629Z,102308.50
2022-12-05T03:37:56.844Z,102308.50
2022-12-05T03:40:33.391Z,102302.44
2022-12-05T03:43:10.229Z,102311.13
2022-12-05T03:45:43.512Z,102311.84
2022-12-05T03:48:21.433Z,102305.66
2022-12-05T03:50:53.769Z,102306.72
2022-12-05T03:53:27.030Z,102308.22
2022-12-05T03:56:02.904Z,102302.66
2022-12-05T03:58:37.402Z,102303.13
2022-12-05T04:01:08.210Z,102289.50
2022-12-05T04:03:43.476Z,102280.47
2022-12-05T04:06:18.804Z,102282.13
2022-12-05T04:08:52.215Z,102272.16
2022-12-05T04:11:24.626Z,102271.00
2022-12-05T04:13:56.042Z,102284.31
2022-12-05T04:16:43.560Z,102285.06
2022-12-05T04:19:19.175Z,102279.06
2022-12-05T04:21:50.249Z,102279.31
2022-12-05T04:24:39.798Z,102281.63
2022-12-05T04:27:16.901Z,102289.56
2022-12-05T04:29:54.414Z,102278.06
2022-12-05T04:32:27.715Z,102271.03
2022-12-05T04:35:02.860Z,102275.31
2022-12-05T04:37:36.872Z,102264.63
2022-12-05T04:40:11.188Z,102259.16
2022-12-05T04:42:42.761Z,102264.16
2022-12-05T04:45:15.153Z,102261.44
2022-12-05T04:47:46.391Z,102258.31
2022-12-05T04:50:17.963Z,102272.38
2022-12-05T04:52:51.611Z,102274.78
2022-12-05T04:55:26.111Z,102268.69
2022-12-05T04:58:05.741Z,102277.84
2022-12-05T05:00:39.805Z,102267.56
2022-12-05T05:03:14.177Z,102251.13
2022-12-05T05:05:48.613Z,102266.09
2022-12-05T05:08:21.597Z,102280.88
2022-12-05T05:10:59.369Z,102280.06
2022-12-05T05:13:27.719Z,102295.19
2022-12-05T05:15:55.916Z,102296.09
2022-12-05T05:18:24.099Z,102290.03
2022-12-05T05:20:53.745Z,102284.19
2022-12-05T05:23:21.875Z,102289.53
2022-12-05T05:25:54.624Z,102285.13
2022-12-05T05:28:23.547Z,102298.13
2022-12-05T05:30:51.929Z,102298.97
2022-12-05T05:33:20.173Z,102299.16
2022-12-05T05:35:48.306Z,102292.25
2022-12-05T05:38:17.847Z,102287.97
2022-12-05T05:40:46.015Z,102294.13
2022-12-05T05:43:14.178Z,102293.22
2022-12-05T05:45:42.293Z,102297.38
2022-12-05T05:48:10.351Z,102294.56
2022-12-05T05:50:38.592Z,102302.94
2022-12-05T05:53:06.728Z,102310.47
2022-12-05T05:55:36.139Z,102320.13
2022-12-05T05:58:04.212Z,102322.84
2022-12-05T06:00:32.332Z,102321.91
2022-12-05T06:03:00.633Z,102320.97
2022-12-05T06:05:28.871Z,102319.19
2022-12-05T06:07:57.011Z,102318.34
2022-12-05T06:10:25.205Z,102323.59
2022-12-05T06:12:54.686Z,102318.47
2022-12-05T06:15:23.255Z,102320.22
2022-12-05T06:17:51.495Z,102321.69
2022-12-05T06:20:19.824Z,102325.06
2022-12-05T06:22:47.899Z,102329.34
2022-12-05T06:25:16.051Z,102335.44
2022-12-05T06:27:44.171Z,102331.34
2022-12-05T06:30:14.555Z,102326.94
2022-12-05T06:32:42.726Z,102322.53
2022-12-05T06:35:15.832Z,102312.66
2022-12-05T06:37:44.467Z,102309.31
2022-12-05T06:40:13.687Z,102296.91
2022-12-05T06:42:41.735Z,102292.50
2022-12-05T06:45:10.750Z,102301.44
2022-12-05T06:47:40.304Z,102293.59
2022-12-05T06:50:09.800Z,102301.44
2022-12-05T06:52:37.907Z,102303.84
2022-12-05T06:55:07.000Z,102312.22
2022-12-05T06:57:35.307Z,102313.91
2022-12-05T07:00:17.874Z,102312.00
2022-12-05T07:02:47.640Z,102319.75
2022-12-05T07:05:15.759Z,102331.94
2022-12-05T07:07:43.881Z,102339.59
2022-12-05T07:10:12.026Z,102333.41
2022-12-05T07:12:40.130Z,102359.09
2022-12-05T07:15:09.143Z,102344.63
2022-12-05T07:17:39.153Z,102355.56
2022-12-05T07:20:10.501Z,102365.56
2022-12-05T07:22:39.041Z,102358.84
2022-12-05T07:25:07.831Z,102364.91
2022-12-05T07:27:35.970Z,102364.09
2022-12-05T07:30:04.321Z,102361.59
2022-12-05T07:32:34.482Z,102365.03
2022-12-05T07:35:02.784Z,102371.84
2022-12-05T07:37:32.244Z,102375.22
2022-12-05T07:40:00.749Z,102376.88
2022-12-05T07:42:29.291Z,102371.44
2022-12-05T07:44:57.473Z,102375.72
2022-12-05T07:47:25.594Z,102389.56
2022-12-05T07:49:53.634Z,102392.19
2022-12-05T07:52:21.731Z,102386.22
2022-12-05T07:54:51.218Z,102385.47
2022-12-05T07:57:19.281Z,102403.22
2022-12-05T07:59:47.632Z,102397.03
2022-12-05T08:02:15.847Z,102400.91
2022-12-05T08:04:44.050Z,102398.50
2022-12-05T08:07:12.363Z,102399.75
2022-12-05T08:09:40.476Z,102411.41
2022-12-05T08:12:10.117Z,102402.81
2022-12-05T08:14:38.233Z,102393.47
2022-12-05T08:17:06.459Z,102395.56
2022-12-05T08:19:34.753Z,102393.03
2022-12-05T08:22:02.862Z,102395.34
2022-12-05T08:24:31.025Z,102384.53
2022-12-05T08:26:59.258Z,102373.09
2022-12-05T08:29:28.834Z,102372.28
2022-12-05T08:31:57.037Z,102379.22
2022-12-05T08:34:25.185Z,102371.34
2022-12-05T08:36:53.389Z,102374.81
2022-12-05T08:39:21.772Z,102381.59
2022-12-05T08:41:50.793Z,102380.47
2022-12-05T08:44:19.495Z,102384.66
2022-12-05T08:46:51.196Z,102390.63
2022-12-05T08:49:20.365Z,102382.63
2022-12-05T08:51:48.633Z,102382.56
2022-12-05T08:54:16.829Z,102390.31
2022-12-05T08:56:45.082Z,102391.03
2022-12-05T08:59:13.387Z,102388.41
2022-12-05T09:01:42.369Z,102388.72
2022-12-05T09:04:12.596Z,102390.19
2022-12-05T09:06:42.035Z,102402.47
2022-12-05T09:09:12.614Z,102400.78
2022-12-05T09:11:46.695Z,102395.34
2022-12-05T09:14:15.287Z,102404.16
2022-12-05T09:16:45.897Z,102399.66
2022-12-05T09:19:17.879Z,102392.53
2022-12-05T09:21:46.460Z,102402.06
2022-12-05T09:24:15.614Z,102407.19
2022-12-05T09:26:44.119Z,102411.72
2022-12-05T09:29:17.207Z,102394.91
2022-12-05T09:31:47.928Z,102401.84
2022-12-05T09:34:18.647Z,102403.31
2022-12-05T09:36:49.945Z,102408.22
2022-12-05T09:39:18.072Z,102410.66
2022-12-05T09:42:06.347Z,102414.22
2022-12-05T09:44:43.403Z,102420.44
2022-12-05T09:47:22.148Z,102414.22
2022-12-05T09:49:55.027Z,102420.81
2022-12-05T09:52:28.211Z,102418.59
2022-12-05T09:54:57.384Z,102415.78
2022-12-05T09:57:34.218Z,102423.53
2022-12-05T10:00:04.128Z,102425.31
2022-12-05T10:02:45.517Z,102434.66
2022-12-05T10:05:20.732Z,102437.06
2022-12-05T10:07:57.337Z,102428.13
2022-12-05T10:10:41.521Z,102434.72
2022-12-05T10:13:30.336Z,102431.78
2022-12-05T10:16:02.141Z,102445.44
2022-12-05T10:18:38.545Z,102432.00
2022-12-05T10:21:17.349Z,102437.00
2022-12-05T10:23:58.084Z,102444.56
2022-12-05T10:26:31.471Z,102462.09
2022-12-05T10:29:09.167Z,102458.44
2022-12-05T10:31:40.379Z,102458.31
2022-12-05T10:34:16.470Z,102466.63
2022-12-05T10:36:56.440Z,102465.56
2022-12-05T10:39:24.733Z,102459.34
2022-12-05T10:41:53.045Z,102474.91
2022-12-05T10:44:21.305Z,102477.19
2022-12-05T10:46:50.088Z,102483.16
2022-12-05T10:49:20.098Z,102477.91
2022-12-05T10:51:50.335Z,102484.97
2022-12-05T10:54:22.200Z,102481.50
2022-12-05T10:56:51.966Z,102492.94
2022-12-05T10:59:22.231Z,102494.41
2022-12-05T11:01:53.961Z,102515.31
2022-12-05T11:04:29.801Z,102507.34
2022-12-05T11:07:02.046Z,102509.09
2022-12-05T11:09:33.219Z,102515.94
2022-12-05T11:12:22.558Z,102509.22
2022-12-05T11:15:03.729Z,102511.41
2022-12-05T11:17:35.586Z,102514.78
2022-12-05T11:20:14.011Z,102514.97
2022-12-05T11:22:48.478Z,102517.09
2022-12-05T11:25:26.635Z,102512.59
2022-12-05T11:27:59.759Z,102513.97
2022-12-05T11:30:31.089Z,102503.47
2022-12-05T11:33:21.218Z,102510.31
2022-12-05T11:35:50.527Z,102504.53
2022-12-05T11:38:25.206Z,102502.88
2022-12-05T11:40:58.907Z,102507.03
2022-12-05T11:44:04.807Z,102501.69
2022-12-05T11:46:41.148Z,102496.94
2022-12-05T11:49:33.306Z,102494.13
2022-12-05T11:52:09.778Z,102496.28
2022-12-05T11:55:05.344Z,102507.53
2022-12-05T11:57:56.177Z,102514.06
2022-12-05T12:00:28.734Z,102502.94
2022-12-05T12:03:33.092Z,102508.41
2022-12-05T12:06:16.305Z,102515.31
2022-12-05T12:08:56.478Z,102519.72
2022-12-05T12:11:37.205Z,102515.44
2022-12-05T12:14:15.275Z,102519.00
2022-12-05T12:16:53.932Z,102511.03
2022-12-05T12:19:39.884Z,102513.56
2022-12-05T12:22:35.813Z,102515.22
2022-12-05T12:25:23.939Z,102512.19
2022-12-05T12:28:06.158Z,102525.63
2022-12-05T12:30:49.162Z,102518.94
2022-12-05T12:33:30.078Z,102510.44
2022-12-05T12:36:06.803Z,102504.94
2022-12-05T12:38:56.423Z,102504.53
2022-12-05T12:41:52.932Z,102493.09
2022-12-05T12:44:46.528Z,102494.56
2022-12-05T12:47:22.779Z,102499.56
2022-12-05T12:50:03.316Z,102494.84
2022-12-05T12:52:50.577Z,102509.41
2022-12-05T12:55:25.794Z,102511.13
2022-12-05T12:58:07.167Z,102513.44
2022-12-05T13:00:48.590Z,102524.25
2022-12-05T13:03:22.739Z,102521.13
2022-12-05T13:05:54.374Z,102522.28
2022-12-05T13:08:28.681Z,102532.47
2022-12-05T13:10:59.602Z,102519.53
2022-12-05T13:13:33.644Z,102522.06
2022-12-05T13:16:07.965Z,102523.19
2022-12-05T13:18:36.736Z,102526.56
2022-12-05T13:21:08.509Z,102520.16
2022-12-05T13:23:44.893Z,102519.94
2022-12-05T13:26:14.778Z,102530.22
2022-12-05T13:28:51.592Z,102527.72
2022-12-05T13:31:35.687Z,102533.03
2022-12-05T13:34:04.099Z,102522.84
2022-12-05T13:36:58.626Z,102524.84
2022-12-05T13:39:44.381Z,102533.81
2022-12-05T13:42:24.502Z,102523.31
2022-12-05T13:44:55.958Z,102530.22
2022-12-05T13:47:31.534Z,102518.25
2022-12-05T13:50:10.789Z,102516.59
2022-12-05T13:52:45.467Z,102520.38
2022-12-05T13:55:24.189Z,102502.31
2022-12-05T13:57:55.280Z,102513.78
2022-12-05T14:00:32.467Z,102511.56
2022-12-05T14:03:04.749Z,102513.69
2022-12-05T14:05:53.318Z,102510.53
2022-12-05T14:08:54.351Z,102503.06
2022-12-05T14:11:23.001Z,102495.75
2022-12-05T14:13:51.706Z,102499.81
2022-12-05T14:16:50.732Z,102494.56
2022-12-05T14:19:52.517Z,102484.94
2022-12-05T14:22:51.932Z,102487.22
2022-12-05T14:25:34.726Z,102485.47
2022-12-05T14:28:19.392Z,102496.78
2022-12-05T14:31:02.000Z,102491.41
2022-12-05T14:33:30.257Z,102492.38
2022-12-05T14:36:07.524Z,102492.25
2022-12-05T14:38:37.945Z,102494.69
2022-12-05T14:41:23.942Z,102487.97
2022-12-05T14:43:54.909Z,102492.38
2022-12-05T14:46:27.047Z,102481.75
2022-12-05T14:48:56.184Z,102487.75
2022-12-05T14:51:56.973Z,102485.22
2022-12-05T14:54:26.077Z,102491.09
2022-12-05T14:57:05.052Z,102490.47
2022-12-05T14:59:36.522Z,102498.25
2022-12-05T15:02:05.153Z,102484.81
2022-12-05T15:04:41.835Z,102477.16
2022-12-05T15:07:15.013Z,102481.56
2022-12-05T15:09:52.097Z,102484.31
2022-12-05T15:12:24.442Z,102491.22
2022-12-05T15:15:02.501Z,102491.84
2022-12-05T15:17:38.838Z,102496.03
2022-12-05T15:20:16.771Z,102504.97
2022-12-05T15:22:46.446Z,102515.34
2022-12-05T15:25:24.611Z,102504.97
2022-12-05T15:28:05.357Z,102492.50
2022-12-05T15:30:37.498Z,102508.31
2022-12-05T15:33:06.437Z,102488.72
2022-12-05T15:35:35.517Z,102508.09
2022-12-05T15:38:10.673Z,102502.97
2022-12-05T15:40:38.790Z,102501.31
2022-12-05T15:43:29.823Z,102497.94
2022-12-05T15:46:23.852Z,102506.66
2022-12-05T15:48:53.002Z,102494.38
2022-12-05T15:51:24.687Z,102491.75
2022-12-05T15:53:59.136Z,102497.72
2022-12-05T15:56:30.386Z,102495.09
2022-12-05T15:59:05.847Z,102486.09
2022-12-05T16:01:40.833Z,102503.50
2022-12-05T16:04:16.808Z,102500.88
2022-12-05T16:06:48.614Z,102504.25
2022-12-05T16:09:20.372Z,102502.22
2022-12-05T16:11:56.024Z,102498.56
2022-12-05T16:17:17.276Z,102510.75
2022-12-05T16:19:49.505Z,102508.94
2022-12-05T16:22:24.814Z,102507.09
2022-12-05T16:25:01.188Z,102514.63
2022-12-05T16:27:33.018Z,102525.97
2022-12-05T16:30:22.960Z,102528.47
2022-12-05T16:32:59.024Z,102532.88
2022-12-05T16:35:33.986Z,102533.59
2022-12-05T16:38:08.428Z,102545.56
2022-12-05T16:40:38.693Z,102552.63
2022-12-05T16:43:17.035Z,102552.63
2022-12-05T16:45:46.705Z,102550.75
2022-12-05T16:48:22.011Z,102559.22
2022-12-05T16:50:51.422Z,102553.06
2022-12-05T16:53:34.367Z,102572.03
2022-12-05T16:56:05.875Z,102577.91
2022-12-05T16:58:34.442Z,102579.50
2022-12-05T17:01:04.577Z,102585.47
2022-12-05T17:03:34.808Z,102584.53
2022-12-05T17:06:03.699Z,102585.69
2022-12-05T17:08:31.937Z,102590.94
2022-12-05T17:11:02.101Z,102591.03
2022-12-05T17:13:32.995Z,102597.44
2022-12-05T17:16:01.268Z,102586.09
2022-12-05T17:18:31.702Z,102591.34
2022-12-05T17:21:03.182Z,102590.22
2022-12-05T17:23:31.298Z,102598.81
2022-12-05T17:26:00.923Z,102590.00
2022-12-05T17:28:29.173Z,102597.66
2022-12-05T17:30:58.723Z,102596.63
2022-12-05T17:33:26.924Z,102601.03
2022-12-05T17:35:55.030Z,102605.44
2022-12-05T17:38:23.432Z,102612.44
2022-12-05T17:40:51.792Z,102605.75
2022-12-05T17:43:24.820Z,102608.78
2022-12-05T17:45:54.768Z,102606.47
2022-12-05T17:48:26.493Z,102598.81
2022-12-05T17:50:57.749Z,102602.91
2022-12-05T17:53:26.691Z,102598.50
2022-12-05T17:55:54.978Z,102596.19
2022-12-05T17:58:23.047Z,102599.56
2022-12-05T18:00:51.181Z,102595.03
2022-12-05T18:03:19.802Z,102598.16
2022-12-05T18:05:49.529Z,102598.16
2022-12-05T18:08:18.202Z,102615.63
2022-12-05T18:10:48.416Z,102611.22
2022-12-05T18:13:17.675Z,102618.84
2022-12-05T18:15:48.771Z,102634.41
2022-12-05T18:18:18.320Z,102624.63
2022-12-05T18:20:46.731Z,102627.38
2022-12-05T18:23:16.407Z,102631.78
2022-12-05T18:25:44.536Z,102617.94
2022-12-05T18:28:17.768Z,102625.38
2022-12-05T18:30:47.894Z,102625.50
2022-12-05T18:33:16.018Z,102625.38
2022-12-05T18:35:44.086Z,102633.25
2022-12-05T18:38:12.549Z,102613.19
2022-12-05T18:40:42.324Z,102629.78
2022-12-05T18:43:10.546Z,102630.84
2022-12-05T18:45:38.807Z,102638.41
2022-12-05T18:48:37.772Z,102634.81
2022-12-05T18:50:55.284Z,102646.38
2022-12-05T18:53:23.703Z,102643.53
2022-12-05T18:56:20.423Z,102652.16
2022-12-05T18:58:41.883Z,102652.28
2022-12-05T19:01:12.528Z,102657.94
2022-12-05T19:03:41.137Z,102660.25
2022-12-05T19:06:13.713Z,102666.63
2022-12-05T19:08:42.170Z,102657.84
2022-12-05T19:11:12.394Z,102668.53
2022-12-05T19:13:40.871Z,102665.28
2022-12-05T19:16:14.257Z,102660.25
2022-12-05T19:18:56.172Z,102669.88
2022-12-05T19:21:24.918Z,102670.75
2022-12-05T19:23:53.340Z,102671.06
2022-12-05T19:26:23.818Z,102672.41
2022-12-05T19:28:52.070Z,102672.53
2022-12-05T19:31:22.606Z,102688.47
2022-12-05T19:33:52.678Z,102679.94
2022-12-05T19:36:22.788Z,102687.28
2022-12-05T19:38:53.137Z,102691.91
2022-12-05T19:41:25.100Z,102684.97
2022-12-05T19:43:54.623Z,102682.66
2022-12-05T19:46:25.971Z,102687.91
2022-12-05T19:48:54.435Z,102679.13
2022-12-05T19:51:22.717Z,102677.41
2022-12-05T19:53:51.273Z,102688.97
2022-12-05T19:56:21.687Z,102680.97
2022-12-05T19:58:52.448Z,102678.66
2022-12-05T20:01:22.649Z,102671.63
2022-12-05T20:03:52.875Z,102670.78
2022-12-05T20:06:21.565Z,102672.47
2022-12-05T20:08:52.491Z,102664.88
2022-12-05T20:11:24.868Z,102663.09
2022-12-05T20:13:56.714Z,102661.34
2022-12-05T20:16:27.282Z,102661.25
2022-12-05T20:18:59.055Z,102667.94
2022-12-05T20:21:29.237Z,102666.69
2022-12-05T20:23:59.232Z,102667.44
2022-12-05T20:26:29.774Z,102651.25
2022-12-05T20:29:00.817Z,102652.84
2022-12-05T20:31:30.520Z,102640.44
2022-12-05T20:33:59.071Z,102639.59
2022-12-05T20:36:28.843Z,102630.16
2022-12-05T20:38:58.257Z,102632.88
2022-12-05T20:41:27.348Z,102626.97
2022-12-05T20:43:57.605Z,102633.47
2022-12-05T20:46:28.435Z,102625.63
2022-12-05T20:48:57.408Z,102620.47
2022-12-05T20:51:27.612Z,102613.34
2022-12-05T20:53:56.829Z,102609.69
2022-12-05T20:56:26.502Z,102602.47
2022-12-05T20:58:57.100Z,102605.16
2022-12-05T21:01:28.248Z,102596.38
2022-12-05T21:03:57.057Z,102595.50
2022-12-05T21:06:26.764Z,102593.84
2022-12-05T21:08:55.316Z,102583.56
2022-12-05T21:11:24.717Z,102588.81
2022-12-05T21:13:52.953Z,102588.81
2022-12-05T21:16:23.141Z,102582.81
2022-12-05T21:18:53.461Z,102580.19
2022-12-05T21:21:23.811Z,102581.13
2022-12-05T21:23:55.799Z,102582.91
2022-12-05T21:26:25.846Z,102591.31
2022-12-05T21:28:54.704Z,102598.25
2022-12-05T21:31:25.254Z,102599.00
2022-12-05T21:33:57.490Z,102599.84
2022-12-05T21:36:27.806Z,102602.22
2022-12-05T21:38:56.727Z,102604.13
2022-12-05T21:41:25.705Z,102605.81
2022-12-05T21:43:56.104Z,102604.84
2022-12-05T21:46:24.889Z,102615.16
2022-12-05T21:48:54.906Z,102613.19
2022-12-05T21:51:24.098Z,102624.31
2022-12-05T21:53:52.964Z,102626.63
2022-12-05T21:56:23.078Z,102628.19
2022-12-05T21:58:51.704Z,102632.50
2022-12-05T22:01:23.167Z,102639.75
2022-12-05T22:03:52.566Z,102634.81
2022-12-05T22:06:22.155Z,102631.44
2022-12-05T22:08:50.375Z,102631.72
2022-12-05T22:11:20.549Z,102630.91
2022-12-05T22:13:52.961Z,102625.00
2022-12-05T22:16:21.633Z,102626.78
2022-12-05T22:18:50.335Z,102631.84
2022-12-05T22:21:20.734Z,102642.41
2022-12-05T22:23:50.828Z,102641.41
2022-12-05T22:26:20.845Z,102635.31
2022-12-05T22:28:51.648Z,102637.94
2022-12-05T22:31:21.433Z,102633.81
2022-12-05T22:33:50.055Z,102634.97
2022-12-05T22:36:20.192Z,102639.56
2022-12-05T22:38:50.360Z,102630.84
2022-12-05T22:41:20.063Z,102631.91
2022-12-05T22:43:49.759Z,102639.78
2022-12-05T22:46:20.312Z,102625.06
2022-12-05T22:48:50.239Z,102627.81
2022-12-05T22:51:19.709Z,102622.38
2022-12-05T22:53:50.964Z,102623.50
2022-12-05T22:56:20.563Z,102629.59
2022-12-05T22:58:48.779Z,102625.31
2022-12-05T23:01:19.013Z,102630.25
2022-12-05T23:03:49.139Z,102636.22
2022-12-05T23:06:18.971Z,102637.06
2022-12-05T23:08:49.671Z,102642.19
2022-12-05T23:11:18.846Z,102644.50
2022-12-05T23:13:48.101Z,102662.88
2022-12-05T23:16:20.782Z,102662.03
2022-12-05T23:18:50.264Z,102665.50
2022-12-05T23:21:21.446Z,102676.09
2022-12-05T23:23:53.840Z,102677.34
2022-12-05T23:26:24.069Z,102668.81
2022-12-05T23:28:52.858Z,102665.47
2022-12-05T23:31:21.695Z,102656.84
2022-12-05T23:33:51.601Z,102660.72
2022-12-05T23:36:20.469Z,102665.97
2022-12-05T23:38:50.624Z,102663.44
2022-12-05T23:41:20.807Z,102655.59
2022-12-05T23:43:50.243Z,102656.31
2022-12-05T23:46:21.441Z,102649.38
2022-12-05T23:48:50.588Z,102647.50
2022-12-05T23:51:23.804Z,102642.34
2022-12-05T23:53:56.505Z,102632.72
2022-12-05T23:56:27.564Z,102637.00
2022-12-05T23:58:57.233Z,102641.34
